Weather at Niagara South Airport

Public forecast

Using degrees Celsius for public forecast. Weather courtesy of forecast.io.

Closest aviation weather report (METAR) to Niagara South Airport

Closest report is Niagara Falls International Airport, 8.3 nm (15.3 km) NE.

2024/05/30 20:53 (retrieved 40 minutes ago)

KIAG 302053Z 01008KT 10SM CLR 19/01 A3014 RMK AO2 SLP208 T01940006 55000

Closest aviation forecast (TAF) to Niagara South Airport

Closest forecast is Niagara Falls International Airport, 8.3 nm (15.3 km) NE.

2024/05/30 18:30 (retrieved 3 hours ago)

TAF KIAG 301729Z 3018/3118 34012KT P6SM SKC FM302200 33007KT P6SM SKC FM310200 25004KT P6SM SKC FM311600 28006KT P6SM SKC